sensor_id;sensor_type;location;lat;lon;timestamp;temperature;humidity
43894;DHT22;29556;50.846;4.442;2022-08-19T00:02:04;21.10;79.70
43894;DHT22;29556;50.846;4.442;2022-08-19T00:04:35;21.10;79.40
43894;DHT22;29556;50.846;4.442;2022-08-19T00:07:03;21.10;78.80
43894;DHT22;29556;50.846;4.442;2022-08-19T00:09:29;21.20;79.10
43894;DHT22;29556;50.846;4.442;2022-08-19T00:11:57;21.10;77.50
43894;DHT22;29556;50.846;4.442;2022-08-19T00:14:41;21.20;78.10
43894;DHT22;29556;50.846;4.442;2022-08-19T00:17:09;21.20;77.80
43894;DHT22;29556;50.846;4.442;2022-08-19T00:19:36;21.30;77.10
43894;DHT22;29556;50.846;4.442;2022-08-19T00:22:02;21.30;76.80
43894;DHT22;29556;50.846;4.442;2022-08-19T00:24:32;21.30;77.10
43894;DHT22;29556;50.846;4.442;2022-08-19T00:26:58;21.30;77.20
43894;DHT22;29556;50.846;4.442;2022-08-19T00:29:25;21.30;77.20
43894;DHT22;29556;50.846;4.442;2022-08-19T00:31:52;21.20;77.10
43894;DHT22;29556;50.846;4.442;2022-08-19T00:34:29;21.20;77.80
43894;DHT22;29556;50.846;4.442;2022-08-19T00:36:58;21.20;77.60
43894;DHT22;29556;50.846;4.442;2022-08-19T00:39:25;21.20;77.80
43894;DHT22;29556;50.846;4.442;2022-08-19T00:41:51;21.10;78.50
43894;DHT22;29556;50.846;4.442;2022-08-19T00:44:29;21.10;78.80
43894;DHT22;29556;50.846;4.442;2022-08-19T00:47:05;21.20;79.00
43894;DHT22;29556;50.846;4.442;2022-08-19T00:49:41;21.10;78.90
43894;DHT22;29556;50.846;4.442;2022-08-19T00:52:15;21.20;79.00
43894;DHT22;29556;50.846;4.442;2022-08-19T00:54:42;21.20;79.00
43894;DHT22;29556;50.846;4.442;2022-08-19T00:57:11;21.30;79.00
43894;DHT22;29556;50.846;4.442;2022-08-19T00:59:42;21.30;78.80
43894;DHT22;29556;50.846;4.442;2022-08-19T01:02:19;21.30;78.90
43894;DHT22;29556;50.846;4.442;2022-08-19T01:04:51;21.20;79.00
43894;DHT22;29556;50.846;4.442;2022-08-19T01:07:18;21.30;79.00
43894;DHT22;29556;50.846;4.442;2022-08-19T01:09:44;21.20;79.00
43894;DHT22;29556;50.846;4.442;2022-08-19T01:12:10;21.20;79.00
43894;DHT22;29556;50.846;4.442;2022-08-19T01:14:38;21.10;79.20
43894;DHT22;29556;50.846;4.442;2022-08-19T01:17:09;21.20;79.20
43894;DHT22;29556;50.846;4.442;2022-08-19T01:19:41;21.20;78.80
43894;DHT22;29556;50.846;4.442;2022-08-19T01:24:50;21.10;78.80
43894;DHT22;29556;50.846;4.442;2022-08-19T01:27:18;21.10;78.70
43894;DHT22;29556;50.846;4.442;2022-08-19T01:29:45;21.00;78.50
43894;DHT22;29556;50.846;4.442;2022-08-19T01:32:20;21.10;78.80
43894;DHT22;29556;50.846;4.442;2022-08-19T01:34:48;21.10;78.50
43894;DHT22;29556;50.846;4.442;2022-08-19T01:37:23;20.90;78.30
43894;DHT22;29556;50.846;4.442;2022-08-19T01:39:50;21.00;78.10
43894;DHT22;29556;50.846;4.442;2022-08-19T01:42:16;21.00;78.30
43894;DHT22;29556;50.846;4.442;2022-08-19T01:44:41;21.00;78.10
43894;DHT22;29556;50.846;4.442;2022-08-19T01:47:18;20.90;77.00
43894;DHT22;29556;50.846;4.442;2022-08-19T01:49:46;20.70;77.50
43894;DHT22;29556;50.846;4.442;2022-08-19T01:52:25;20.60;77.70
43894;DHT22;29556;50.846;4.442;2022-08-19T01:54:52;20.70;77.80
43894;DHT22;29556;50.846;4.442;2022-08-19T01:57:19;20.60;77.40
43894;DHT22;29556;50.846;4.442;2022-08-19T02:00:07;20.60;77.70
43894;DHT22;29556;50.846;4.442;2022-08-19T02:02:44;20.70;78.20
43894;DHT22;29556;50.846;4.442;2022-08-19T02:05:12;20.80;77.40
43894;DHT22;29556;50.846;4.442;2022-08-19T02:07:40;20.80;76.70
43894;DHT22;29556;50.846;4.442;2022-08-19T02:10:13;20.80;76.70
43894;DHT22;29556;50.846;4.442;2022-08-19T02:12:50;20.90;76.50
43894;DHT22;29556;50.846;4.442;2022-08-19T02:15:18;20.80;76.20
43894;DHT22;29556;50.846;4.442;2022-08-19T02:17:44;20.80;76.30
43894;DHT22;29556;50.846;4.442;2022-08-19T02:20:11;20.80;77.10
43894;DHT22;29556;50.846;4.442;2022-08-19T02:22:48;20.80;75.60
43894;DHT22;29556;50.846;4.442;2022-08-19T02:25:16;20.70;76.10
43894;DHT22;29556;50.846;4.442;2022-08-19T02:27:43;20.60;76.10
43894;DHT22;29556;50.846;4.442;2022-08-19T02:30:15;20.60;75.90
43894;DHT22;29556;50.846;4.442;2022-08-19T02:32:42;20.60;75.10
43894;DHT22;29556;50.846;4.442;2022-08-19T02:35:08;20.50;74.30
43894;DHT22;29556;50.846;4.442;2022-08-19T02:37:37;20.50;74.90
43894;DHT22;29556;50.846;4.442;2022-08-19T02:40:22;20.50;75.00
43894;DHT22;29556;50.846;4.442;2022-08-19T02:42:49;20.50;75.10
43894;DHT22;29556;50.846;4.442;2022-08-19T02:45:22;20.50;75.40
43894;DHT22;29556;50.846;4.442;2022-08-19T02:47:49;20.50;75.60
43894;DHT22;29556;50.846;4.442;2022-08-19T02:50:20;20.50;75.90
43894;DHT22;29556;50.846;4.442;2022-08-19T02:53:09;20.50;76.20
43894;DHT22;29556;50.846;4.442;2022-08-19T02:55:35;20.50;76.20
43894;DHT22;29556;50.846;4.442;2022-08-19T02:58:02;20.40;76.00
43894;DHT22;29556;50.846;4.442;2022-08-19T03:00:30;20.40;76.40
43894;DHT22;29556;50.846;4.442;2022-08-19T03:02:55;20.40;76.60
43894;DHT22;29556;50.846;4.442;2022-08-19T03:05:21;20.40;76.50
43894;DHT22;29556;50.846;4.442;2022-08-19T03:07:47;20.30;76.60
43894;DHT22;29556;50.846;4.442;2022-08-19T03:10:13;20.30;76.50
43894;DHT22;29556;50.846;4.442;2022-08-19T03:12:38;20.30;76.30
43894;DHT22;29556;50.846;4.442;2022-08-19T03:15:06;20.30;76.50
43894;DHT22;29556;50.846;4.442;2022-08-19T03:17:33;20.30;76.40
43894;DHT22;29556;50.846;4.442;2022-08-19T03:20:00;20.30;76.40
43894;DHT22;29556;50.846;4.442;2022-08-19T03:22:26;20.30;76.40
43894;DHT22;29556;50.846;4.442;2022-08-19T03:24:53;20.30;76.50
43894;DHT22;29556;50.846;4.442;2022-08-19T03:27:19;20.20;76.50
43894;DHT22;29556;50.846;4.442;2022-08-19T03:29:45;20.30;76.70
43894;DHT22;29556;50.846;4.442;2022-08-19T03:32:13;20.20;76.70
43894;DHT22;29556;50.846;4.442;2022-08-19T03:34:38;20.20;76.70
43894;DHT22;29556;50.846;4.442;2022-08-19T03:37:10;20.20;76.70
43894;DHT22;29556;50.846;4.442;2022-08-19T03:39:38;20.20;76.70
43894;DHT22;29556;50.846;4.442;2022-08-19T03:42:04;20.20;76.80
43894;DHT22;29556;50.846;4.442;2022-08-19T03:44:31;20.20;77.00
43894;DHT22;29556;50.846;4.442;2022-08-19T03:47:01;20.10;77.00
43894;DHT22;29556;50.846;4.442;2022-08-19T03:49:38;20.10;77.00
43894;DHT22;29556;50.846;4.442;2022-08-19T03:52:07;20.10;77.20
43894;DHT22;29556;50.846;4.442;2022-08-19T03:54:45;20.10;77.20
43894;DHT22;29556;50.846;4.442;2022-08-19T03:57:52;20.10;77.50
43894;DHT22;29556;50.846;4.442;2022-08-19T04:00:20;20.10;77.10
43894;DHT22;29556;50.846;4.442;2022-08-19T04:02:50;20.00;77.50
43894;DHT22;29556;50.846;4.442;2022-08-19T04:05:34;19.90;77.40
43894;DHT22;29556;50.846;4.442;2022-08-19T04:08:06;19.90;78.00
43894;DHT22;29556;50.846;4.442;2022-08-19T04:10:41;19.90;78.00
43894;DHT22;29556;50.846;4.442;2022-08-19T04:13:13;19.80;78.00
43894;DHT22;29556;50.846;4.442;2022-08-19T04:15:42;19.80;78.10
43894;DHT22;29556;50.846;4.442;2022-08-19T04:18:10;19.80;78.20
43894;DHT22;29556;50.846;4.442;2022-08-19T04:20:45;19.80;78.10
43894;DHT22;29556;50.846;4.442;2022-08-19T04:23:36;19.70;78.70
43894;DHT22;29556;50.846;4.442;2022-08-19T04:26:01;19.70;78.80
43894;DHT22;29556;50.846;4.442;2022-08-19T04:28:39;19.60;78.70
43894;DHT22;29556;50.846;4.442;2022-08-19T04:31:40;19.60;79.00
43894;DHT22;29556;50.846;4.442;2022-08-19T04:34:31;19.60;78.90
43894;DHT22;29556;50.846;4.442;2022-08-19T04:37:08;19.50;79.30
43894;DHT22;29556;50.846;4.442;2022-08-19T04:39:43;19.60;79.30
43894;DHT22;29556;50.846;4.442;2022-08-19T04:42:31;19.50;79.30
43894;DHT22;29556;50.846;4.442;2022-08-19T04:45:10;19.50;79.30
43894;DHT22;29556;50.846;4.442;2022-08-19T04:47:38;19.50;79.40
43894;DHT22;29556;50.846;4.442;2022-08-19T04:50:07;19.50;79.40
43894;DHT22;29556;50.846;4.442;2022-08-19T04:52:34;19.50;79.50
43894;DHT22;29556;50.846;4.442;2022-08-19T04:55:01;19.50;79.60
43894;DHT22;29556;50.846;4.442;2022-08-19T04:57:26;19.50;79.70
43894;DHT22;29556;50.846;4.442;2022-08-19T04:59:56;19.60;79.70
43894;DHT22;29556;50.846;4.442;2022-08-19T05:02:22;19.60;79.60
43894;DHT22;29556;50.846;4.442;2022-08-19T05:04:51;19.60;79.30
43894;DHT22;29556;50.846;4.442;2022-08-19T05:07:16;19.60;79.30
43894;DHT22;29556;50.846;4.442;2022-08-19T05:09:42;19.60;79.40
43894;DHT22;29556;50.846;4.442;2022-08-19T05:12:10;19.60;79.40
43894;DHT22;29556;50.846;4.442;2022-08-19T05:14:36;19.60;79.20
43894;DHT22;29556;50.846;4.442;2022-08-19T05:17:02;19.70;79.20
43894;DHT22;29556;50.846;4.442;2022-08-19T05:19:28;19.70;79.20
43894;DHT22;29556;50.846;4.442;2022-08-19T05:22:12;19.70;79.00
43894;DHT22;29556;50.846;4.442;2022-08-19T05:24:56;19.70;78.90
43894;DHT22;29556;50.846;4.442;2022-08-19T05:27:21;19.70;79.00
43894;DHT22;29556;50.846;4.442;2022-08-19T05:29:47;19.60;79.10
43894;DHT22;29556;50.846;4.442;2022-08-19T05:32:12;19.70;79.20
43894;DHT22;29556;50.846;4.442;2022-08-19T05:34:40;19.70;79.20
43894;DHT22;29556;50.846;4.442;2022-08-19T05:37:28;19.70;79.20
43894;DHT22;29556;50.846;4.442;2022-08-19T05:40:11;19.70;79.10
43894;DHT22;29556;50.846;4.442;2022-08-19T05:42:41;19.70;79.30
43894;DHT22;29556;50.846;4.442;2022-08-19T05:45:13;19.70;79.40
43894;DHT22;29556;50.846;4.442;2022-08-19T05:47:46;19.60;79.50
43894;DHT22;29556;50.846;4.442;2022-08-19T05:50:16;19.70;79.50
43894;DHT22;29556;50.846;4.442;2022-08-19T05:52:47;19.70;79.60
43894;DHT22;29556;50.846;4.442;2022-08-19T05:55:14;19.70;79.60
43894;DHT22;29556;50.846;4.442;2022-08-19T05:57:45;19.70;79.60
43894;DHT22;29556;50.846;4.442;2022-08-19T06:00:14;19.80;79.70
43894;DHT22;29556;50.846;4.442;2022-08-19T06:02:44;19.80;79.50
43894;DHT22;29556;50.846;4.442;2022-08-19T06:05:11;19.90;79.60
43894;DHT22;29556;50.846;4.442;2022-08-19T06:07:38;20.00;79.40
43894;DHT22;29556;50.846;4.442;2022-08-19T06:10:07;20.00;79.10
43894;DHT22;29556;50.846;4.442;2022-08-19T06:12:35;20.10;79.30
43894;DHT22;29556;50.846;4.442;2022-08-19T06:15:04;20.10;78.90
43894;DHT22;29556;50.846;4.442;2022-08-19T06:17:32;20.20;78.90
43894;DHT22;29556;50.846;4.442;2022-08-19T06:20:05;20.20;78.50
43894;DHT22;29556;50.846;4.442;2022-08-19T06:22:38;20.30;78.70
43894;DHT22;29556;50.846;4.442;2022-08-19T06:25:03;20.40;78.60
43894;DHT22;29556;50.846;4.442;2022-08-19T06:27:29;20.40;78.50
43894;DHT22;29556;50.846;4.442;2022-08-19T06:29:59;20.40;78.70
43894;DHT22;29556;50.846;4.442;2022-08-19T06:32:24;20.40;78.10
43894;DHT22;29556;50.846;4.442;2022-08-19T06:34:51;20.50;78.20
43894;DHT22;29556;50.846;4.442;2022-08-19T06:37:17;20.60;78.30
43894;DHT22;29556;50.846;4.442;2022-08-19T06:39:44;20.70;78.30
43894;DHT22;29556;50.846;4.442;2022-08-19T06:42:21;20.80;77.80
43894;DHT22;29556;50.846;4.442;2022-08-19T06:44:49;20.90;77.30
43894;DHT22;29556;50.846;4.442;2022-08-19T06:47:17;20.90;77.40
43894;DHT22;29556;50.846;4.442;2022-08-19T06:49:52;20.80;76.60
43894;DHT22;29556;50.846;4.442;2022-08-19T06:52:19;20.80;77.30
43894;DHT22;29556;50.846;4.442;2022-08-19T06:54:48;20.90;77.50
43894;DHT22;29556;50.846;4.442;2022-08-19T06:57:16;20.90;77.10
43894;DHT22;29556;50.846;4.442;2022-08-19T06:59:44;21.00;77.50
43894;DHT22;29556;50.846;4.442;2022-08-19T07:02:12;21.10;77.20
43894;DHT22;29556;50.846;4.442;2022-08-19T07:04:38;21.20;76.60
43894;DHT22;29556;50.846;4.442;2022-08-19T07:07:08;21.20;76.90
43894;DHT22;29556;50.846;4.442;2022-08-19T07:09:38;21.30;76.60
43894;DHT22;29556;50.846;4.442;2022-08-19T07:12:09;21.30;76.20
43894;DHT22;29556;50.846;4.442;2022-08-19T07:14:38;21.50;76.60
43894;DHT22;29556;50.846;4.442;2022-08-19T07:17:07;21.60;76.40
43894;DHT22;29556;50.846;4.442;2022-08-19T07:19:36;21.70;76.50
43894;DHT22;29556;50.846;4.442;2022-08-19T07:22:03;21.80;75.80
43894;DHT22;29556;50.846;4.442;2022-08-19T07:24:30;21.80;75.60
43894;DHT22;29556;50.846;4.442;2022-08-19T07:26:58;21.80;75.70
43894;DHT22;29556;50.846;4.442;2022-08-19T07:29:34;21.90;75.40
43894;DHT22;29556;50.846;4.442;2022-08-19T07:32:04;21.90;75.20
43894;DHT22;29556;50.846;4.442;2022-08-19T07:34:31;22.00;75.10
43894;DHT22;29556;50.846;4.442;2022-08-19T07:37:01;22.10;74.80
43894;DHT22;29556;50.846;4.442;2022-08-19T07:39:32;22.00;74.60
43894;DHT22;29556;50.846;4.442;2022-08-19T07:42:02;22.00;75.20
43894;DHT22;29556;50.846;4.442;2022-08-19T07:44:30;22.00;74.90
43894;DHT22;29556;50.846;4.442;2022-08-19T07:46:59;22.00;74.90
43894;DHT22;29556;50.846;4.442;2022-08-19T07:49:27;22.10;75.00
43894;DHT22;29556;50.846;4.442;2022-08-19T07:52:05;22.20;74.60
43894;DHT22;29556;50.846;4.442;2022-08-19T07:54:35;22.20;74.50
43894;DHT22;29556;50.846;4.442;2022-08-19T07:57:05;22.20;74.70
43894;DHT22;29556;50.846;4.442;2022-08-19T07:59:33;22.20;75.50
43894;DHT22;29556;50.846;4.442;2022-08-19T08:02:00;22.30;75.10
43894;DHT22;29556;50.846;4.442;2022-08-19T08:04:35;22.30;74.70
43894;DHT22;29556;50.846;4.442;2022-08-19T08:07:35;22.30;75.60
43894;DHT22;29556;50.846;4.442;2022-08-19T08:10:20;22.20;74.80
43894;DHT22;29556;50.846;4.442;2022-08-19T08:12:46;22.20;75.20
43894;DHT22;29556;50.846;4.442;2022-08-19T08:15:15;22.40;75.30
43894;DHT22;29556;50.846;4.442;2022-08-19T08:17:45;22.50;75.20
43894;DHT22;29556;50.846;4.442;2022-08-19T08:20:15;22.60;74.70
43894;DHT22;29556;50.846;4.442;2022-08-19T08:22:46;22.60;74.40
43894;DHT22;29556;50.846;4.442;2022-08-19T08:25:31;22.70;74.20
43894;DHT22;29556;50.846;4.442;2022-08-19T08:27:57;22.80;74.20
43894;DHT22;29556;50.846;4.442;2022-08-19T08:30:27;23.00;74.10
43894;DHT22;29556;50.846;4.442;2022-08-19T08:33:03;23.20;74.30
43894;DHT22;29556;50.846;4.442;2022-08-19T08:35:30;23.40;73.60
43894;DHT22;29556;50.846;4.442;2022-08-19T08:38:02;23.50;73.10
43894;DHT22;29556;50.846;4.442;2022-08-19T08:40:52;23.50;72.50
43894;DHT22;29556;50.846;4.442;2022-08-19T08:43:33;23.50;71.80
43894;DHT22;29556;50.846;4.442;2022-08-19T08:46:08;23.40;72.00
43894;DHT22;29556;50.846;4.442;2022-08-19T08:51:25;23.30;72.20
43894;DHT22;29556;50.846;4.442;2022-08-19T08:53:55;23.30;72.30
43894;DHT22;29556;50.846;4.442;2022-08-19T08:56:21;23.50;72.70
43894;DHT22;29556;50.846;4.442;2022-08-19T08:58:54;23.50;72.00
43894;DHT22;29556;50.846;4.442;2022-08-19T09:01:24;23.60;72.30
43894;DHT22;29556;50.846;4.442;2022-08-19T09:03:51;23.50;72.00
43894;DHT22;29556;50.846;4.442;2022-08-19T09:09:29;23.50;71.70
43894;DHT22;29556;50.846;4.442;2022-08-19T09:12:07;23.60;71.60
43894;DHT22;29556;50.846;4.442;2022-08-19T09:14:54;23.40;71.70
43894;DHT22;29556;50.846;4.442;2022-08-19T09:17:26;23.40;72.40
43894;DHT22;29556;50.846;4.442;2022-08-19T09:20:21;23.40;72.60
43894;DHT22;29556;50.846;4.442;2022-08-19T09:22:50;23.50;72.60
43894;DHT22;29556;50.846;4.442;2022-08-19T09:25:20;23.50;72.50
43894;DHT22;29556;50.846;4.442;2022-08-19T09:27:52;23.60;72.80
43894;DHT22;29556;50.846;4.442;2022-08-19T09:30:32;23.70;72.50
43894;DHT22;29556;50.846;4.442;2022-08-19T09:33:04;23.70;72.10
43894;DHT22;29556;50.846;4.442;2022-08-19T09:35:33;23.80;72.10
43894;DHT22;29556;50.846;4.442;2022-08-19T09:38:21;23.70;72.20
43894;DHT22;29556;50.846;4.442;2022-08-19T09:41:13;23.80;72.10
43894;DHT22;29556;50.846;4.442;2022-08-19T09:43:41;23.90;71.70
43894;DHT22;29556;50.846;4.442;2022-08-19T09:46:13;24.00;71.40
43894;DHT22;29556;50.846;4.442;2022-08-19T09:48:51;24.10;71.30
43894;DHT22;29556;50.846;4.442;2022-08-19T09:51:39;24.10;71.10
43894;DHT22;29556;50.846;4.442;2022-08-19T09:54:04;24.00;70.60
43894;DHT22;29556;50.846;4.442;2022-08-19T09:56:40;24.00;71.50
43894;DHT22;29556;50.846;4.442;2022-08-19T09:59:14;24.10;71.30
43894;DHT22;29556;50.846;4.442;2022-08-19T10:01:51;24.20;70.90
43894;DHT22;29556;50.846;4.442;2022-08-19T10:04:19;24.10;70.70
43894;DHT22;29556;50.846;4.442;2022-08-19T10:06:50;24.20;70.70
43894;DHT22;29556;50.846;4.442;2022-08-19T10:09:17;24.20;70.50
43894;DHT22;29556;50.846;4.442;2022-08-19T10:11:48;24.20;70.40
43894;DHT22;29556;50.846;4.442;2022-08-19T10:14:17;24.30;70.50
43894;DHT22;29556;50.846;4.442;2022-08-19T10:16:47;24.40;70.00
43894;DHT22;29556;50.846;4.442;2022-08-19T10:19:32;24.40;69.80
43894;DHT22;29556;50.846;4.442;2022-08-19T10:22:07;24.50;69.40
43894;DHT22;29556;50.846;4.442;2022-08-19T10:24:38;24.40;70.20
43894;DHT22;29556;50.846;4.442;2022-08-19T10:27:30;24.50;70.00
43894;DHT22;29556;50.846;4.442;2022-08-19T10:30:08;24.60;69.90
43894;DHT22;29556;50.846;4.442;2022-08-19T10:32:44;24.60;69.70
43894;DHT22;29556;50.846;4.442;2022-08-19T10:35:24;24.70;69.80
43894;DHT22;29556;50.846;4.442;2022-08-19T10:38:08;24.80;70.10
43894;DHT22;29556;50.846;4.442;2022-08-19T10:40:39;24.90;68.80
43894;DHT22;29556;50.846;4.442;2022-08-19T10:43:08;25.00;69.50
43894;DHT22;29556;50.846;4.442;2022-08-19T10:45:36;25.20;68.80
43894;DHT22;29556;50.846;4.442;2022-08-19T10:48:13;25.20;68.60
43894;DHT22;29556;50.846;4.442;2022-08-19T10:50:39;25.20;67.80
43894;DHT22;29556;50.846;4.442;2022-08-19T10:53:36;25.30;68.10
43894;DHT22;29556;50.846;4.442;2022-08-19T10:56:03;25.10;67.60
43894;DHT22;29556;50.846;4.442;2022-08-19T10:59:00;25.20;68.00
43894;DHT22;29556;50.846;4.442;2022-08-19T11:01:32;25.20;68.00
43894;DHT22;29556;50.846;4.442;2022-08-19T11:04:18;25.30;66.90
43894;DHT22;29556;50.846;4.442;2022-08-19T11:07:06;25.30;67.10
43894;DHT22;29556;50.846;4.442;2022-08-19T11:09:47;25.20;67.80
43894;DHT22;29556;50.846;4.442;2022-08-19T11:12:19;25.20;67.20
43894;DHT22;29556;50.846;4.442;2022-08-19T11:14:50;25.10;67.50
43894;DHT22;29556;50.846;4.442;2022-08-19T11:17:19;25.10;68.10
43894;DHT22;29556;50.846;4.442;2022-08-19T11:19:53;25.10;68.10
43894;DHT22;29556;50.846;4.442;2022-08-19T11:22:20;25.10;68.20
43894;DHT22;29556;50.846;4.442;2022-08-19T11:25:06;25.00;68.20
43894;DHT22;29556;50.846;4.442;2022-08-19T11:27:38;24.90;67.90
43894;DHT22;29556;50.846;4.442;2022-08-19T11:30:13;24.80;68.50
43894;DHT22;29556;50.846;4.442;2022-08-19T11:32:44;24.70;68.40
43894;DHT22;29556;50.846;4.442;2022-08-19T11:35:19;24.60;69.30
43894;DHT22;29556;50.846;4.442;2022-08-19T11:37:51;24.70;69.40
43894;DHT22;29556;50.846;4.442;2022-08-19T11:40:17;24.70;69.20
43894;DHT22;29556;50.846;4.442;2022-08-19T11:42:49;24.70;69.40
43894;DHT22;29556;50.846;4.442;2022-08-19T11:45:34;24.70;69.40
43894;DHT22;29556;50.846;4.442;2022-08-19T11:48:01;24.60;69.10
43894;DHT22;29556;50.846;4.442;2022-08-19T11:50:27;24.60;69.50
43894;DHT22;29556;50.846;4.442;2022-08-19T11:52:57;24.60;69.40
43894;DHT22;29556;50.846;4.442;2022-08-19T11:55:26;24.70;69.50
43894;DHT22;29556;50.846;4.442;2022-08-19T11:57:52;24.80;68.80
43894;DHT22;29556;50.846;4.442;2022-08-19T12:00:23;24.90;69.10
43894;DHT22;29556;50.846;4.442;2022-08-19T12:03:21;25.00;69.00
43894;DHT22;29556;50.846;4.442;2022-08-19T12:05:47;25.00;68.50
43894;DHT22;29556;50.846;4.442;2022-08-19T12:08:16;25.00;68.60
43894;DHT22;29556;50.846;4.442;2022-08-19T12:10:44;25.00;68.60
43894;DHT22;29556;50.846;4.442;2022-08-19T12:13:18;25.10;68.90
43894;DHT22;29556;50.846;4.442;2022-08-19T12:15:53;25.20;68.60
43894;DHT22;29556;50.846;4.442;2022-08-19T12:18:20;25.30;68.30
43894;DHT22;29556;50.846;4.442;2022-08-19T12:20:47;25.50;67.30
43894;DHT22;29556;50.846;4.442;2022-08-19T12:23:17;25.70;67.70
43894;DHT22;29556;50.846;4.442;2022-08-19T12:25:46;25.80;66.70
43894;DHT22;29556;50.846;4.442;2022-08-19T12:28:22;26.00;64.90
43894;DHT22;29556;50.846;4.442;2022-08-19T12:30:49;26.20;66.10
43894;DHT22;29556;50.846;4.442;2022-08-19T12:33:19;26.30;64.40
43894;DHT22;29556;50.846;4.442;2022-08-19T12:35:49;26.50;65.40
43894;DHT22;29556;50.846;4.442;2022-08-19T12:38:18;26.60;64.20
43894;DHT22;29556;50.846;4.442;2022-08-19T12:40:48;26.60;64.20
43894;DHT22;29556;50.846;4.442;2022-08-19T12:43:15;26.80;64.70
43894;DHT22;29556;50.846;4.442;2022-08-19T12:45:45;26.80;62.20
43894;DHT22;29556;50.846;4.442;2022-08-19T12:48:13;26.70;62.40
43894;DHT22;29556;50.846;4.442;2022-08-19T12:50:45;26.60;62.90
43894;DHT22;29556;50.846;4.442;2022-08-19T12:53:25;26.50;62.00
43894;DHT22;29556;50.846;4.442;2022-08-19T12:55:58;26.40;63.10
43894;DHT22;29556;50.846;4.442;2022-08-19T12:58:29;26.30;62.60
43894;DHT22;29556;50.846;4.442;2022-08-19T13:00:55;26.40;63.80
43894;DHT22;29556;50.846;4.442;2022-08-19T13:03:22;26.50;62.80
43894;DHT22;29556;50.846;4.442;2022-08-19T13:06:00;26.70;63.20
43894;DHT22;29556;50.846;4.442;2022-08-19T13:08:26;26.80;61.70
43894;DHT22;29556;50.846;4.442;2022-08-19T13:10:52;26.80;61.70
43894;DHT22;29556;50.846;4.442;2022-08-19T13:13:19;26.90;61.90
43894;DHT22;29556;50.846;4.442;2022-08-19T13:15:48;26.80;60.80
43894;DHT22;29556;50.846;4.442;2022-08-19T13:18:14;26.90;60.60
43894;DHT22;29556;50.846;4.442;2022-08-19T13:20:40;26.90;61.50
43894;DHT22;29556;50.846;4.442;2022-08-19T13:23:07;27.00;61.40
43894;DHT22;29556;50.846;4.442;2022-08-19T13:25:32;27.00;60.20
43894;DHT22;29556;50.846;4.442;2022-08-19T13:28:00;26.90;60.80
43894;DHT22;29556;50.846;4.442;2022-08-19T13:30:26;26.80;60.20
43894;DHT22;29556;50.846;4.442;2022-08-19T13:33:18;26.80;60.60
43894;DHT22;29556;50.846;4.442;2022-08-19T13:35:53;26.80;59.80
43894;DHT22;29556;50.846;4.442;2022-08-19T13:38:23;26.70;60.20
43894;DHT22;29556;50.846;4.442;2022-08-19T13:40:50;26.70;60.80
43894;DHT22;29556;50.846;4.442;2022-08-19T13:43:29;26.70;60.50
43894;DHT22;29556;50.846;4.442;2022-08-19T13:45:55;26.60;60.40
43894;DHT22;29556;50.846;4.442;2022-08-19T13:48:22;26.50;60.70
43894;DHT22;29556;50.846;4.442;2022-08-19T13:50:49;26.70;61.40
43894;DHT22;29556;50.846;4.442;2022-08-19T13:53:15;26.60;60.00
43894;DHT22;29556;50.846;4.442;2022-08-19T13:55:44;26.50;60.20
43894;DHT22;29556;50.846;4.442;2022-08-19T13:58:12;26.50;61.10
43894;DHT22;29556;50.846;4.442;2022-08-19T14:00:43;26.50;62.00
43894;DHT22;29556;50.846;4.442;2022-08-19T14:03:09;26.40;60.80
43894;DHT22;29556;50.846;4.442;2022-08-19T14:05:37;26.40;60.50
43894;DHT22;29556;50.846;4.442;2022-08-19T14:08:03;26.30;61.00
43894;DHT22;29556;50.846;4.442;2022-08-19T14:10:39;26.30;61.00
43894;DHT22;29556;50.846;4.442;2022-08-19T14:13:15;26.20;61.10
43894;DHT22;29556;50.846;4.442;2022-08-19T14:15:41;26.30;61.50
43894;DHT22;29556;50.846;4.442;2022-08-19T14:18:07;26.20;61.00
43894;DHT22;29556;50.846;4.442;2022-08-19T14:20:37;26.20;61.70
43894;DHT22;29556;50.846;4.442;2022-08-19T14:23:03;25.90;62.20
43894;DHT22;29556;50.846;4.442;2022-08-19T14:25:33;25.70;63.90
43894;DHT22;29556;50.846;4.442;2022-08-19T14:28:08;25.40;65.80
43894;DHT22;29556;50.846;4.442;2022-08-19T14:30:39;25.00;67.50
43894;DHT22;29556;50.846;4.442;2022-08-19T14:33:06;24.80;69.20
43894;DHT22;29556;50.846;4.442;2022-08-19T14:35:39;24.80;69.60
43894;DHT22;29556;50.846;4.442;2022-08-19T14:38:26;24.70;69.80
43894;DHT22;29556;50.846;4.442;2022-08-19T14:40:53;24.70;70.50
43894;DHT22;29556;50.846;4.442;2022-08-19T14:43:20;24.70;70.20
43894;DHT22;29556;50.846;4.442;2022-08-19T14:45:49;24.70;69.80
43894;DHT22;29556;50.846;4.442;2022-08-19T14:48:18;24.70;69.50
43894;DHT22;29556;50.846;4.442;2022-08-19T14:51:05;24.70;69.70
43894;DHT22;29556;50.846;4.442;2022-08-19T14:53:33;24.80;69.50
43894;DHT22;29556;50.846;4.442;2022-08-19T14:56:12;24.90;69.60
43894;DHT22;29556;50.846;4.442;2022-08-19T15:04:25;25.10;70.90
43894;DHT22;29556;50.846;4.442;2022-08-19T15:10:19;25.30;70.80
43894;DHT22;29556;50.846;4.442;2022-08-19T15:12:46;25.50;71.00
43894;DHT22;29556;50.846;4.442;2022-08-19T15:15:18;25.50;70.30
43894;DHT22;29556;50.846;4.442;2022-08-19T15:17:57;25.60;69.70
43894;DHT22;29556;50.846;4.442;2022-08-19T15:20:31;25.60;69.30
43894;DHT22;29556;50.846;4.442;2022-08-19T15:22:58;25.60;68.50
43894;DHT22;29556;50.846;4.442;2022-08-19T15:25:47;25.50;68.60
43894;DHT22;29556;50.846;4.442;2022-08-19T15:28:25;25.30;68.70
43894;DHT22;29556;50.846;4.442;2022-08-19T15:30:55;25.10;68.70
43894;DHT22;29556;50.846;4.442;2022-08-19T15:33:36;25.20;69.50
43894;DHT22;29556;50.846;4.442;2022-08-19T15:36:18;25.10;69.50
43894;DHT22;29556;50.846;4.442;2022-08-19T15:38:47;25.30;69.40
43894;DHT22;29556;50.846;4.442;2022-08-19T15:41:22;25.30;69.20
43894;DHT22;29556;50.846;4.442;2022-08-19T15:44:10;25.50;69.20
43894;DHT22;29556;50.846;4.442;2022-08-19T15:46:51;25.50;67.20
43894;DHT22;29556;50.846;4.442;2022-08-19T15:49:23;25.60;68.10
43894;DHT22;29556;50.846;4.442;2022-08-19T15:51:52;25.70;68.10
43894;DHT22;29556;50.846;4.442;2022-08-19T15:54:33;25.70;68.30
43894;DHT22;29556;50.846;4.442;2022-08-19T15:57:09;25.70;68.00
43894;DHT22;29556;50.846;4.442;2022-08-19T16:00:10;25.60;68.20
43894;DHT22;29556;50.846;4.442;2022-08-19T16:02:57;25.60;68.30
43894;DHT22;29556;50.846;4.442;2022-08-19T16:05:41;25.40;68.30
43894;DHT22;29556;50.846;4.442;2022-08-19T16:08:36;25.40;68.40
43894;DHT22;29556;50.846;4.442;2022-08-19T16:11:36;25.30;68.80
43894;DHT22;29556;50.846;4.442;2022-08-19T17:18:48;24.70;77.30
43894;DHT22;29556;50.846;4.442;2022-08-19T17:21:26;24.70;77.50
43894;DHT22;29556;50.846;4.442;2022-08-19T17:23:58;24.60;77.40